Ripon, Wisconsin
Current Conditions -  °F | °C
As of 11:53 AM on Tuesday 21 Oct 2014 (Local Time) from KOSH Reporting Station
Overcast Overcast  
Wind Chill:   Ceiling: 2200
Heat Index:   Visibility: 10mi
Dew Point:   Wind: 12mph
Humidity: 71%   Direction: 20°NNE
Pressure: 30.24"   Gusts: NA
Location:  43.85°N, 88.84°W
Report Text: KOSH 211653Z 02010KT 10SM OVC022 08/03 A3024 RMK AO2 SLP243 T00780028
Loading
Personal Weather Stations






























Interactive Weather Map New forecast layout! Learn more

10-Day Weather Forecast

Advertisements
Track Severe Weather on mobile